createdAt,value
2019-06-10T00:00:24.153Z,16.81
2019-06-10T00:02:52.818Z,16.78
2019-06-10T00:05:21.601Z,16.85
2019-06-10T00:07:51.602Z,16.79
2019-06-10T00:10:21.460Z,16.70
2019-06-10T00:12:51.442Z,16.72
2019-06-10T00:15:21.372Z,16.60
2019-06-10T00:17:55.665Z,16.61
2019-06-10T00:20:21.609Z,16.49
2019-06-10T00:22:51.512Z,16.38
2019-06-10T00:25:21.002Z,16.36
2019-06-10T00:27:51.166Z,16.38
2019-06-10T00:30:20.809Z,16.25
2019-06-10T00:32:51.408Z,16.14
2019-06-10T00:35:21.049Z,16.23
2019-06-10T00:37:51.081Z,16.32
2019-06-10T00:40:21.289Z,16.24
2019-06-10T00:42:50.753Z,16.20
2019-06-10T00:45:21.442Z,16.23
2019-06-10T00:47:50.781Z,16.15
2019-06-10T00:50:21.709Z,16.02
2019-06-10T00:52:51.685Z,16.03
2019-06-10T00:55:21.177Z,15.93
2019-06-10T00:57:50.994Z,16.25
2019-06-10T01:00:25.587Z,16.21
2019-06-10T01:02:51.846Z,16.03
2019-06-10T01:05:20.768Z,16.02
2019-06-10T01:07:50.832Z,16.06
2019-06-10T01:10:21.061Z,16.20
2019-06-10T01:12:51.191Z,16.15
2019-06-10T01:15:18.982Z,16.14
2019-06-10T01:17:47.955Z,16.04
2019-06-10T01:20:16.191Z,16.02
2019-06-10T01:22:44.349Z,15.89
2019-06-10T01:25:14.965Z,15.85
2019-06-10T01:27:42.624Z,15.79
2019-06-10T01:30:18.821Z,15.96
2019-06-10T01:32:41.686Z,15.87
2019-06-10T01:35:13.046Z,15.77
2019-06-10T01:37:41.953Z,15.85
2019-06-10T01:40:14.525Z,15.79
2019-06-10T01:42:41.309Z,15.61
2019-06-10T01:45:12.482Z,15.60
2019-06-10T01:47:41.611Z,15.61
2019-06-10T01:50:12.012Z,15.49
2019-06-10T01:52:41.561Z,15.53
2019-06-10T01:55:12.149Z,15.54
2019-06-10T01:57:41.130Z,15.50
2019-06-10T02:00:13.388Z,15.47
2019-06-10T02:02:44.083Z,15.53
2019-06-10T02:05:12.674Z,15.56
2019-06-10T02:07:40.975Z,15.52
2019-06-10T02:10:11.815Z,15.48
2019-06-10T02:12:41.453Z,15.48
2019-06-10T02:15:10.098Z,15.50
2019-06-10T02:17:41.568Z,15.49
2019-06-10T02:20:10.663Z,15.46
2019-06-10T02:22:41.141Z,15.45
2019-06-10T02:25:10.988Z,15.40
2019-06-10T02:27:41.356Z,15.38
2019-06-10T02:30:22.774Z,15.36
2019-06-10T02:32:42.592Z,15.38
2019-06-10T02:35:15.463Z,15.39
2019-06-10T02:37:38.862Z,15.40
2019-06-10T02:40:08.680Z,15.35
2019-06-10T02:42:44.313Z,15.39
2019-06-10T02:45:15.228Z,15.45
2019-06-10T02:47:44.407Z,15.47
2019-06-10T02:50:15.062Z,15.41
2019-06-10T02:52:44.499Z,15.36
2019-06-10T02:55:14.078Z,15.31
2019-06-10T02:57:44.872Z,15.34
2019-06-10T03:00:20.672Z,15.37
2019-06-10T03:02:44.943Z,15.40
2019-06-10T03:05:14.296Z,15.47
2019-06-10T03:07:44.394Z,15.49
2019-06-10T03:10:13.809Z,15.49
2019-06-10T03:12:42.438Z,15.46
2019-06-10T03:15:12.624Z,15.61
2019-06-10T03:17:42.783Z,15.70
2019-06-10T03:20:12.306Z,15.60
2019-06-10T03:22:42.323Z,15.54
2019-06-10T03:25:12.960Z,15.44
2019-06-10T03:27:42.423Z,15.41
2019-06-10T03:30:16.840Z,15.35
2019-06-10T03:32:42.774Z,15.28
2019-06-10T03:35:13.000Z,15.52
2019-06-10T03:37:42.220Z,15.52
2019-06-10T03:40:12.875Z,15.32
2019-06-10T03:42:39.665Z,15.37
2019-06-10T03:45:08.593Z,15.40
2019-06-10T03:47:37.056Z,15.31
2019-06-10T03:50:07.976Z,15.38
2019-06-10T03:52:36.169Z,15.58
2019-06-10T03:55:06.222Z,15.50
2019-06-10T03:57:34.419Z,15.70
2019-06-10T04:00:10.344Z,15.52
2019-06-10T04:02:32.710Z,15.37
2019-06-10T04:05:02.713Z,15.31
2019-06-10T04:07:34.140Z,15.25
2019-06-10T04:10:02.368Z,15.23
2019-06-10T04:12:32.718Z,15.25
2019-06-10T04:15:03.100Z,15.37
2019-06-10T04:17:33.169Z,15.45
2019-06-10T04:20:09.380Z,15.60
2019-06-10T04:22:32.961Z,15.63
2019-06-10T04:25:02.996Z,15.67
2019-06-10T04:27:32.751Z,15.71
2019-06-10T04:30:03.286Z,15.85
2019-06-10T04:32:32.267Z,15.87
2019-06-10T04:35:02.342Z,16.18
2019-06-10T04:37:32.528Z,16.44
2019-06-10T04:40:02.799Z,16.41
2019-06-10T04:42:32.797Z,16.49
2019-06-10T04:45:02.944Z,16.71
2019-06-10T04:47:30.461Z,16.89
2019-06-10T04:49:58.667Z,17.01
2019-06-10T04:52:28.428Z,17.03
2019-06-10T04:54:57.463Z,17.05
2019-06-10T04:57:26.856Z,16.98
2019-06-10T04:59:55.587Z,16.77
2019-06-10T05:02:26.436Z,16.82
2019-06-10T05:04:53.717Z,16.83
2019-06-10T05:07:24.055Z,16.85
2019-06-10T05:09:52.619Z,16.76
2019-06-10T05:12:23.262Z,16.53
2019-06-10T05:14:52.675Z,16.40
2019-06-10T05:17:22.169Z,16.46
2019-06-10T05:19:53.089Z,16.51
2019-06-10T05:22:23.647Z,16.29
2019-06-10T05:24:52.740Z,16.15
2019-06-10T05:27:22.811Z,16.01
2019-06-10T05:29:52.710Z,15.87
2019-06-10T05:32:23.241Z,15.81
2019-06-10T05:34:52.814Z,15.81
2019-06-10T05:37:23.313Z,15.95
2019-06-10T05:39:52.786Z,16.05
2019-06-10T05:42:23.338Z,16.22
2019-06-10T05:44:52.450Z,16.34
2019-06-10T05:47:23.364Z,16.37
2019-06-10T05:49:52.807Z,16.41
2019-06-10T05:52:22.984Z,16.39
2019-06-10T05:54:52.130Z,16.48
2019-06-10T05:57:22.711Z,16.55
2019-06-10T05:59:52.277Z,16.64
2019-06-10T06:02:22.294Z,16.69
2019-06-10T06:04:52.908Z,16.81
2019-06-10T06:07:22.263Z,16.87
2019-06-10T06:09:50.520Z,16.99
2019-06-10T06:12:18.791Z,17.12
2019-06-10T06:14:46.997Z,17.31
2019-06-10T06:17:16.821Z,17.38
2019-06-10T06:19:45.083Z,17.50
2019-06-10T06:22:13.847Z,17.61
2019-06-10T06:24:42.835Z,17.81
2019-06-10T06:27:13.066Z,18.11
2019-06-10T06:29:43.139Z,18.34
2019-06-10T06:32:13.199Z,18.63
2019-06-10T06:34:43.137Z,18.94
2019-06-10T06:37:12.723Z,19.31
2019-06-10T06:39:42.917Z,19.60
2019-06-10T06:42:12.659Z,19.92
2019-06-10T06:44:43.418Z,20.32
2019-06-10T06:47:13.124Z,20.51
2019-06-10T06:49:42.497Z,20.48
2019-06-10T06:52:12.792Z,20.22
2019-06-10T06:54:42.441Z,19.95
2019-06-10T06:57:12.931Z,20.01
2019-06-10T06:59:43.068Z,19.91
2019-06-10T07:02:12.325Z,19.73
2019-06-10T07:04:43.170Z,19.90
2019-06-10T07:07:13.213Z,20.04
2019-06-10T07:09:43.362Z,20.31
2019-06-10T07:12:12.934Z,20.76
2019-06-10T07:14:44.833Z,20.99
2019-06-10T07:17:12.591Z,21.17
2019-06-10T07:19:45.638Z,21.24
2019-06-10T07:22:13.635Z,21.02
2019-06-10T07:24:46.813Z,20.80
2019-06-10T07:27:13.087Z,20.79
2019-06-10T07:29:47.001Z,21.22
2019-06-10T07:32:12.392Z,21.13
2019-06-10T07:34:42.268Z,21.39
2019-06-10T07:37:12.927Z,21.84
2019-06-10T07:39:44.007Z,22.31
2019-06-10T07:42:13.618Z,22.59
2019-06-10T07:44:43.971Z,22.77
2019-06-10T07:47:12.789Z,22.84
2019-06-10T07:49:43.989Z,22.96
2019-06-10T07:52:18.545Z,22.66
2019-06-10T07:54:43.738Z,22.50
2019-06-10T07:57:12.933Z,22.35
2019-06-10T07:59:44.519Z,22.46
2019-06-10T08:02:12.419Z,22.31
2019-06-10T08:04:44.116Z,22.10
2019-06-10T08:07:12.485Z,21.34
2019-06-10T08:09:43.527Z,21.19
2019-06-10T08:12:12.604Z,21.26
2019-06-10T08:14:42.740Z,21.77
2019-06-10T08:17:12.794Z,22.40
2019-06-10T08:19:45.390Z,22.04
2019-06-10T08:22:10.153Z,22.54
2019-06-10T08:24:39.374Z,22.93
2019-06-10T08:27:07.630Z,23.25
2019-06-10T08:29:36.699Z,23.52
2019-06-10T08:32:05.010Z,23.42
2019-06-10T08:34:33.282Z,23.82
2019-06-10T08:37:04.300Z,23.57
2019-06-10T08:39:33.504Z,23.36
2019-06-10T08:42:03.158Z,23.32
2019-06-10T08:44:32.777Z,23.70
2019-06-10T08:47:03.078Z,23.71
2019-06-10T08:49:32.717Z,23.83
2019-06-10T08:52:02.669Z,24.01
2019-06-10T08:54:32.480Z,24.29
2019-06-10T08:57:03.354Z,24.44
2019-06-10T08:59:32.539Z,24.22
2019-06-10T09:02:02.871Z,24.00
2019-06-10T09:04:32.922Z,23.67
2019-06-10T09:07:03.306Z,23.88
2019-06-10T09:09:33.526Z,24.24
2019-06-10T09:12:03.592Z,24.09
2019-06-10T09:14:32.612Z,24.31
2019-06-10T09:17:03.423Z,24.23
2019-06-10T09:19:33.250Z,24.17
2019-06-10T09:22:03.239Z,24.53
2019-06-10T09:24:32.779Z,25.15
2019-06-10T09:27:02.860Z,24.75
2019-06-10T09:29:32.936Z,24.58
2019-06-10T09:32:02.166Z,24.59
2019-06-10T09:34:33.098Z,24.84
2019-06-10T09:37:03.102Z,24.84
2019-06-10T09:39:32.858Z,24.82
2019-06-10T09:42:03.400Z,24.62
2019-06-10T09:44:33.250Z,24.75
2019-06-10T09:47:03.248Z,24.33
2019-06-10T09:49:33.040Z,24.47
2019-06-10T09:52:03.328Z,24.19
2019-06-10T09:54:33.306Z,24.51
2019-06-10T09:57:02.383Z,24.87
2019-06-10T09:59:32.244Z,25.14
2019-06-10T10:02:03.639Z,25.30
2019-06-10T10:04:32.718Z,25.39
2019-06-10T10:07:02.926Z,25.28
2019-06-10T10:09:33.791Z,25.10
2019-06-10T10:12:02.887Z,25.01
2019-06-10T10:14:30.194Z,25.03
2019-06-10T10:17:00.493Z,25.33
2019-06-10T10:19:28.890Z,25.87
2019-06-10T10:21:58.834Z,25.71
2019-06-10T10:24:27.041Z,25.97
2019-06-10T10:26:57.900Z,26.21
2019-06-10T10:29:25.232Z,26.90
2019-06-10T10:31:54.195Z,26.81
2019-06-10T10:34:23.584Z,26.56
2019-06-10T10:36:57.030Z,26.26
2019-06-10T10:39:24.492Z,26.59
2019-06-10T10:41:56.600Z,26.62
2019-06-10T10:44:22.194Z,26.03
2019-06-10T10:46:52.685Z,26.14
2019-06-10T10:49:22.295Z,26.33
2019-06-10T10:51:52.407Z,26.47
2019-06-10T10:54:32.956Z,26.72
2019-06-10T10:56:58.640Z,26.73
2019-06-10T10:59:23.110Z,25.67
2019-06-10T11:01:51.620Z,25.61
2019-06-10T11:04:23.128Z,26.00
2019-06-10T11:06:50.199Z,25.62
2019-06-10T11:09:18.400Z,25.66
2019-06-10T11:11:47.200Z,26.15
2019-06-10T11:14:15.542Z,25.73
2019-06-10T11:16:45.331Z,25.41
2019-06-10T11:19:13.543Z,25.49
2019-06-10T11:21:42.663Z,26.00
2019-06-10T11:24:14.291Z,26.05
2019-06-10T11:26:43.159Z,26.05
2019-06-10T11:29:10.936Z,25.43
2019-06-10T11:31:39.090Z,25.38
2019-06-10T11:34:07.260Z,25.07
2019-06-10T11:36:35.457Z,24.67
2019-06-10T11:39:05.293Z,24.71
2019-06-10T11:41:33.858Z,24.96
2019-06-10T11:44:02.073Z,25.29
2019-06-10T11:46:32.569Z,25.19
2019-06-10T11:49:03.671Z,25.06
2019-06-10T11:51:30.586Z,24.65
2019-06-10T11:53:59.002Z,24.54
2019-06-10T11:56:27.257Z,24.69
2019-06-10T11:58:58.353Z,25.43
2019-06-10T12:01:26.150Z,25.48
2019-06-10T12:03:57.599Z,25.21
2019-06-10T12:06:24.266Z,25.80
2019-06-10T12:08:57.469Z,26.22
2019-06-10T12:11:23.189Z,26.55
2019-06-10T12:13:53.694Z,26.39
2019-06-10T12:17:14.862Z,26.48
2019-06-10T12:18:53.817Z,26.79
2019-06-10T12:21:23.599Z,26.50
2019-06-10T12:23:55.960Z,26.09
2019-06-10T12:26:23.416Z,25.60
2019-06-10T12:28:54.629Z,25.53
2019-06-10T12:31:23.234Z,25.95
2019-06-10T12:33:55.298Z,26.58
2019-06-10T12:36:23.845Z,26.39
2019-06-10T12:38:57.520Z,26.53
2019-06-10T12:41:23.177Z,26.83
2019-06-10T12:43:53.021Z,27.01
2019-06-10T12:46:23.167Z,27.11
2019-06-10T12:48:53.978Z,26.56
2019-06-10T12:51:22.799Z,26.46
2019-06-10T12:53:51.480Z,27.23
2019-06-10T12:56:22.522Z,27.18
2019-06-10T12:58:49.137Z,27.46
2019-06-10T13:01:17.561Z,28.03
2019-06-10T13:03:45.757Z,28.19
2019-06-10T13:06:15.668Z,27.41
2019-06-10T13:08:43.216Z,27.34
2019-06-10T13:11:13.215Z,27.71
2019-06-10T13:13:42.538Z,28.73
2019-06-10T13:16:14.111Z,29.00
2019-06-10T13:18:40.241Z,28.98
2019-06-10T13:21:13.323Z,29.11
2019-06-10T13:23:37.670Z,29.80
2019-06-10T13:26:10.896Z,30.48
2019-06-10T13:28:35.102Z,30.11
2019-06-10T13:31:06.244Z,30.09
2019-06-10T13:33:33.145Z,29.71
2019-06-10T13:36:04.725Z,29.26
2019-06-10T13:38:32.991Z,28.43
2019-06-10T13:41:01.755Z,28.23
2019-06-10T13:43:33.047Z,28.02
2019-06-10T13:46:02.788Z,27.79
2019-06-10T13:48:32.100Z,27.74
2019-06-10T13:51:01.481Z,28.08
2019-06-10T13:53:29.642Z,28.48
2019-06-10T13:56:19.030Z,28.52
2019-06-10T13:58:27.146Z,28.65
2019-06-10T14:00:55.297Z,27.92
2019-06-10T14:03:23.499Z,27.03
2019-06-10T14:05:59.576Z,26.61
2019-06-10T14:08:23.275Z,26.17
2019-06-10T14:10:53.894Z,25.97
2019-06-10T14:13:23.532Z,25.54
2019-06-10T14:15:53.255Z,25.55
2019-06-10T14:18:23.100Z,25.51
2019-06-10T14:20:53.044Z,25.71
2019-06-10T14:23:22.030Z,25.36
2019-06-10T14:25:52.573Z,25.38
2019-06-10T14:28:38.093Z,25.47
2019-06-10T14:30:53.371Z,25.29
2019-06-10T14:33:23.494Z,25.27
2019-06-10T14:35:53.363Z,24.98
2019-06-10T14:38:23.287Z,24.79
2019-06-10T14:40:52.491Z,24.79
2019-06-10T14:43:23.238Z,24.68
2019-06-10T14:45:53.395Z,24.73
2019-06-10T14:48:23.390Z,24.51
2019-06-10T14:50:52.154Z,24.66
2019-06-10T14:53:23.042Z,24.82
2019-06-10T14:55:52.933Z,24.86
2019-06-10T14:58:22.775Z,24.82
2019-06-10T15:00:53.758Z,24.88
2019-06-10T15:03:20.267Z,24.72
2019-06-10T15:05:48.506Z,24.47
2019-06-10T15:08:17.308Z,24.61
2019-06-10T15:10:46.221Z,24.67
2019-06-10T15:13:15.991Z,24.45
2019-06-10T15:15:44.782Z,24.38
2019-06-10T15:18:16.535Z,24.47
2019-06-10T15:20:43.048Z,24.50
2019-06-10T15:23:16.486Z,24.65
2019-06-10T15:25:50.057Z,24.71
2019-06-10T15:28:14.469Z,24.63
2019-06-10T15:31:22.131Z,24.74
2019-06-10T15:33:52.544Z,24.75
2019-06-10T15:36:20.241Z,24.82
2019-06-10T15:38:48.444Z,25.04
2019-06-10T15:41:19.868Z,25.24
2019-06-10T15:43:47.143Z,25.45
2019-06-10T15:46:17.509Z,25.64
2019-06-10T15:48:46.245Z,25.55
2019-06-10T15:51:17.514Z,25.54
2019-06-10T15:53:44.365Z,25.56
2019-06-10T15:56:22.494Z,25.38
2019-06-10T15:58:42.987Z,25.41
2019-06-10T16:01:14.464Z,25.45
2019-06-10T16:03:42.363Z,25.20
2019-06-10T16:06:12.142Z,24.98
2019-06-10T16:08:40.358Z,24.93
2019-06-10T16:11:09.320Z,25.03
2019-06-10T16:13:37.520Z,24.77
2019-06-10T16:16:06.181Z,24.75
2019-06-10T16:18:34.952Z,25.00
2019-06-10T16:21:04.510Z,25.01
2019-06-10T16:23:34.183Z,24.85
2019-06-10T16:26:02.750Z,24.94
2019-06-10T16:28:32.912Z,24.73
2019-06-10T16:31:02.775Z,24.56
2019-06-10T16:33:33.515Z,24.59
2019-06-10T16:36:02.968Z,24.39
2019-06-10T16:38:32.831Z,24.32
2019-06-10T16:41:03.203Z,24.31
2019-06-10T16:43:30.306Z,24.31
2019-06-10T16:45:58.499Z,24.25
2019-06-10T16:48:27.707Z,24.09
2019-06-10T16:50:55.902Z,24.23
2019-06-10T16:53:28.260Z,24.32
2019-06-10T16:55:54.034Z,24.06
2019-06-10T16:58:26.204Z,23.90
2019-06-10T17:00:52.157Z,23.79
2019-06-10T17:03:23.439Z,23.70
2019-06-10T17:05:53.077Z,23.63
2019-06-10T17:08:25.904Z,23.46
2019-06-10T17:10:52.710Z,23.36
2019-06-10T17:13:24.032Z,23.38
2019-06-10T17:15:53.821Z,23.25
2019-06-10T17:18:23.572Z,23.26
2019-06-10T17:20:53.534Z,23.16
2019-06-10T17:23:26.566Z,23.13
2019-06-10T17:25:53.525Z,23.07
2019-06-10T17:28:25.632Z,22.88
2019-06-10T17:30:53.026Z,22.80
2019-06-10T17:33:22.891Z,22.66
2019-06-10T17:35:52.426Z,22.58
2019-06-10T17:38:20.728Z,22.51
2019-06-10T17:40:48.980Z,22.41
2019-06-10T17:43:17.244Z,22.33
2019-06-10T17:45:45.490Z,22.17
2019-06-10T17:48:13.749Z,22.07
2019-06-10T17:50:42.870Z,22.12
2019-06-10T17:53:12.703Z,22.26
2019-06-10T17:55:41.249Z,22.39
2019-06-10T17:58:09.465Z,22.30
2019-06-10T18:00:37.662Z,22.12
2019-06-10T18:03:05.888Z,21.96
2019-06-10T18:05:34.165Z,21.77
2019-06-10T18:08:02.532Z,21.75
2019-06-10T18:10:34.103Z,21.67
2019-06-10T18:13:13.173Z,21.59
2019-06-10T18:15:33.320Z,21.48
2019-06-10T18:18:03.458Z,21.24
2019-06-10T18:24:07.573Z,21.23
2019-06-10T18:26:30.980Z,21.23
2019-06-10T18:29:05.993Z,21.24
2019-06-10T18:31:33.531Z,21.15
2019-06-10T18:34:02.477Z,21.13
2019-06-10T18:36:33.069Z,21.08
2019-06-10T18:39:02.855Z,21.09
2019-06-10T18:41:30.878Z,21.10
2019-06-10T18:43:59.195Z,21.01
2019-06-10T18:46:27.917Z,21.02
2019-06-10T18:48:56.483Z,21.17
2019-06-10T18:51:24.880Z,21.01
2019-06-10T18:53:53.260Z,20.94
2019-06-10T18:56:23.167Z,20.88
2019-06-10T18:58:53.034Z,20.79
2019-06-10T19:01:22.649Z,20.85
2019-06-10T19:03:51.192Z,20.76
2019-06-10T19:06:19.750Z,20.71
2019-06-10T19:08:48.174Z,20.58
2019-06-10T19:11:16.795Z,20.65
2019-06-10T19:13:44.984Z,20.58
2019-06-10T19:16:13.301Z,20.58
2019-06-10T19:18:43.230Z,20.58
2019-06-10T19:21:12.897Z,20.59
2019-06-10T19:23:43.834Z,20.45
2019-06-10T19:26:13.806Z,20.30
2019-06-10T19:28:45.410Z,20.33
2019-06-10T19:31:13.659Z,20.31
2019-06-10T19:33:45.191Z,20.34
2019-06-10T19:36:12.786Z,20.37
2019-06-10T19:42:12.890Z,20.44
2019-06-10T19:44:40.801Z,20.41
2019-06-10T19:47:09.504Z,20.32
2019-06-10T19:49:38.623Z,20.35
2019-06-10T19:52:06.882Z,20.25
2019-06-10T19:54:35.074Z,20.08
2019-06-10T19:57:03.305Z,20.14
2019-06-10T19:59:48.954Z,20.15
2019-06-10T20:02:03.400Z,20.27
2019-06-10T20:04:33.436Z,20.34
2019-06-10T20:07:02.371Z,20.12
2019-06-10T20:09:32.769Z,20.11
2019-06-10T20:12:02.172Z,20.04
2019-06-10T20:14:32.276Z,20.07
2019-06-10T20:17:02.945Z,19.83
2019-06-10T20:19:32.605Z,19.84
2019-06-10T20:22:01.051Z,19.84
2019-06-10T20:24:29.244Z,19.68
2019-06-10T20:26:57.446Z,19.41
2019-06-10T20:29:25.637Z,19.29
2019-06-10T20:31:53.845Z,18.99
2019-06-10T20:34:25.384Z,19.06
2019-06-10T20:36:52.048Z,18.73
2019-06-10T20:39:24.355Z,18.67
2019-06-10T20:41:52.409Z,18.52
2019-06-10T20:44:22.193Z,18.38
2019-06-10T20:46:50.012Z,18.19
2019-06-10T20:49:18.212Z,18.05
2019-06-10T20:52:01.615Z,17.91
2019-06-10T20:54:17.158Z,17.93
2019-06-10T20:56:48.561Z,17.85
2019-06-10T20:59:15.285Z,18.00
2019-06-10T21:01:46.132Z,17.88
2019-06-10T21:04:13.406Z,17.75
2019-06-10T21:06:41.617Z,17.79
2019-06-10T21:09:10.312Z,17.60
2019-06-10T21:11:39.783Z,17.41
2019-06-10T21:14:08.084Z,17.42
2019-06-10T21:16:36.285Z,17.33
2019-06-10T21:19:04.478Z,17.55
2019-06-10T21:21:32.775Z,17.55
2019-06-10T21:24:02.298Z,17.31
2019-06-10T21:26:32.606Z,17.45
2019-06-10T21:29:03.659Z,17.27
2019-06-10T21:31:32.563Z,16.97
2019-06-10T21:34:02.929Z,16.92
2019-06-10T21:36:32.191Z,16.78
2019-06-10T21:39:02.767Z,16.82
2019-06-10T21:41:30.392Z,16.68
2019-06-10T21:43:59.594Z,16.57
2019-06-10T21:46:27.965Z,16.57
2019-06-10T21:48:56.215Z,16.67
2019-06-10T21:51:24.371Z,16.75
2019-06-10T21:53:53.739Z,17.00
2019-06-10T21:56:22.729Z,16.79
2019-06-10T21:58:55.051Z,16.79
2019-06-10T22:01:23.700Z,16.72
2019-06-10T22:03:59.983Z,16.72
2019-06-10T22:06:22.788Z,16.88
2019-06-10T22:08:54.534Z,16.79
2019-06-10T22:11:23.356Z,16.76
2019-06-10T22:13:53.297Z,16.45
2019-06-10T22:16:22.656Z,16.40
2019-06-10T22:18:50.912Z,16.31
2019-06-10T22:21:22.763Z,16.19
2019-06-10T22:23:51.538Z,16.13
2019-06-10T22:26:22.534Z,16.04
2019-06-10T22:28:54.188Z,16.04
2019-06-10T22:31:23.779Z,16.08
2019-06-10T22:33:51.539Z,16.14
2019-06-10T22:36:23.002Z,16.16
2019-06-10T22:38:54.019Z,16.30
2019-06-10T22:41:22.592Z,16.40
2019-06-10T22:43:52.192Z,16.46
2019-06-10T22:46:22.971Z,16.55
2019-06-10T22:48:51.075Z,16.54
2019-06-10T22:51:22.471Z,16.55
2019-06-10T22:53:50.246Z,16.54
2019-06-10T22:56:19.197Z,16.43
2019-06-10T22:58:48.109Z,16.47
2019-06-10T23:01:30.815Z,16.57
2019-06-10T23:03:48.070Z,16.52
2019-06-10T23:06:16.318Z,16.52
2019-06-10T23:08:44.524Z,16.61
2019-06-10T23:11:13.051Z,16.60
2019-06-10T23:13:42.441Z,16.54
2019-06-10T23:16:12.890Z,16.57
2019-06-10T23:18:42.483Z,16.55
2019-06-10T23:21:13.304Z,16.68
2019-06-10T23:23:43.084Z,16.72
2019-06-10T23:26:12.935Z,16.67
2019-06-10T23:28:42.116Z,16.62
2019-06-10T23:31:12.309Z,16.60
2019-06-10T23:33:42.586Z,16.69
2019-06-10T23:36:12.898Z,16.65
2019-06-10T23:38:40.396Z,16.74
2019-06-10T23:41:09.725Z,16.78
2019-06-10T23:43:37.928Z,16.62
2019-06-10T23:46:06.179Z,16.62
2019-06-10T23:48:34.376Z,16.60
2019-06-10T23:51:04.900Z,16.56
2019-06-10T23:53:33.088Z,16.64
2019-06-10T23:56:04.738Z,16.69
2019-06-10T23:58:32.810Z,16.55
